Franzen, Wisconsin
Current Conditions -  °F | °C
As of 10:15 PM on Friday 24 Oct 2014 (Local Time) from KAIG Reporting Station
Overcast Overcast  
Wind Chill: 11°   Ceiling: 1200
Heat Index: 11°   Visibility: 10mi
Dew Point: 10°   Wind: 9mph
Humidity: 91%   Direction: 240°WSW
Pressure: 29.84"   Gusts: NA
Location:  44.8179°N, 89.172°W
Report Text: KAIG 250315Z AUTO 24008KT 10SM OVC012 12/10 A2984 RMK AO2 T01150100
Loading
Personal Weather Stations






























Interactive Weather Map
Tropical Storm Tracking
New forecast layout! Learn more

10-Day Weather Forecast

Advertisements
Track Severe Weather on mobile